Time;durP1;ratioP1;P1;durP2;ratioP2;P2;SDS_P1;SDS_P2;PMS_P1;PMS_P2;Temp;Humidity;BMP_temperature;BMP_pressure;BME280_temperature;BME280_humidity;BME280_pressure;Samples;Min_cycle;Max_cycle;Signal;HPM_P1;HPM_P2
2022/03/12 00:01:47;;;;;;;2.63;1.80;;;10.20;99.90;;;;;;5032623;28;20021;-75
2022/03/12 00:04:13;;;;;;;2.55;1.50;;;10.30;99.90;;;;;;5032745;28;20439;-75
2022/03/12 00:06:39;;;;;;;4.97;0.40;;;10.30;99.90;;;;;;5030999;28;20028;-75
2022/03/12 00:09:06;;;;;;;0.30;0.30;;;10.30;99.90;;;;;;5032219;28;20473;-76
2022/03/12 00:11:34;;;;;;;2.63;0.68;;;10.30;99.90;;;;;;5032718;28;20096;-75
2022/03/12 00:14:04;;;;;;;7.28;0.90;;;10.30;99.90;;;;;;5031331;28;20025;-75
2022/03/12 00:16:31;;;;;;;0.10;0.10;;;10.30;99.90;;;;;;5032126;28;20071;-74
2022/03/12 00:19:01;;;;;;;3.38;2.03;;;10.30;99.90;;;;;;5033618;28;20048;-76
2022/03/12 00:21:29;;;;;;;0.43;0.43;;;10.20;99.90;;;;;;5032816;28;20029;-75
2022/03/12 00:23:58;;;;;;;0.57;0.57;;;10.20;99.90;;;;;;5030855;28;20378;-75
2022/03/12 00:26:24;;;;;;;1.45;0.95;;;10.20;99.90;;;;;;5032533;28;20030;-76
2022/03/12 00:28:54;;;;;;;0.98;0.85;;;10.20;99.90;;;;;;5032636;28;20465;-76
2022/03/12 00:31:20;;;;;;;1.65;1.55;;;10.20;99.90;;;;;;5032423;28;20100;-75
2022/03/12 00:33:46;;;;;;;1.50;0.77;;;10.20;99.90;;;;;;5030986;28;20033;-75
2022/03/12 00:36:14;;;;;;;7.57;2.38;;;10.20;99.90;;;;;;5032660;28;20516;-75
2022/03/12 00:38:40;;;;;;;1.50;1.17;;;10.20;99.90;;;;;;5051646;28;20025;-75
2022/03/12 00:41:07;;;;;;;5.07;2.63;;;10.20;99.90;;;;;;5052647;28;20033;-75
2022/03/12 00:43:33;;;;;;;0.03;0.03;;;10.20;99.90;;;;;;5055590;28;20396;-75
2022/03/12 00:45:59;;;;;;;12.73;2.63;;;10.20;99.90;;;;;;5056114;28;20029;-75
2022/03/12 00:48:25;;;;;;;1.35;1.10;;;10.30;99.90;;;;;;5056064;28;20116;-75
2022/03/12 00:50:51;;;;;;;0.00;0.00;;;10.30;99.90;;;;;;5056030;28;20541;-75
2022/03/12 00:53:17;;;;;;;0.10;0.10;;;10.30;99.90;;;;;;5055771;28;20029;-75
2022/03/12 00:55:42;;;;;;;0.00;0.00;;;10.30;99.90;;;;;;5054486;28;20082;-75
2022/03/12 00:58:08;;;;;;;0.10;0.10;;;10.40;99.90;;;;;;5038125;28;20029;-75
2022/03/12 01:00:34;;;;;;;0.10;0.10;;;10.40;99.90;;;;;;5035582;28;20434;-75
2022/03/12 01:03:01;;;;;;;3.10;1.17;;;10.40;99.90;;;;;;5035712;28;20037;-76
2022/03/12 01:05:53;;;;;;;0.13;0.10;;;10.40;99.90;;;;;;5034466;28;20025;-75
2022/03/12 01:08:20;;;;;;;4.57;1.45;;;10.40;99.90;;;;;;5035515;28;20028;-75
2022/03/12 01:10:46;;;;;;;0.32;0.32;;;10.50;99.90;;;;;;5035427;28;20018;-75
2022/03/12 01:13:13;;;;;;;0.30;0.30;;;10.40;99.90;;;;;;5034912;28;20045;-75
2022/03/12 01:15:39;;;;;;;1.23;0.95;;;10.40;99.90;;;;;;5035244;28;20071;-75
2022/03/12 01:18:12;;;;;;;0.00;0.00;;;10.40;99.90;;;;;;5034527;28;20037;-75
2022/03/12 01:20:38;;;;;;;28.13;2.40;;;10.40;99.90;;;;;;5035811;28;20415;-76
2022/03/12 01:23:04;;;;;;;0.45;0.45;;;10.40;99.90;;;;;;5035404;28;20033;-75
2022/03/12 01:25:30;;;;;;;0.30;0.30;;;10.40;99.90;;;;;;5035300;28;20019;-75
2022/03/12 01:27:55;;;;;;;0.35;0.30;;;10.40;99.90;;;;;;5035376;28;20017;-75
2022/03/12 01:30:30;;;;;;;0.00;0.00;;;10.40;99.90;;;;;;5035552;28;20441;-75
2022/03/12 01:32:57;;;;;;;11.48;2.83;;;10.40;99.90;;;;;;5033830;28;20036;-75
2022/03/12 01:35:24;;;;;;;0.00;0.00;;;10.40;99.90;;;;;;5035435;28;20029;-76
2022/03/12 01:37:49;;;;;;;6.18;0.85;;;10.40;99.90;;;;;;5047804;28;20025;-76
2022/03/12 01:40:15;;;;;;;0.00;0.00;;;10.40;99.90;;;;;;5055194;28;20116;-76
2022/03/12 01:42:43;;;;;;;4.47;1.23;;;10.40;99.90;;;;;;5053652;28;20411;-75
2022/03/12 01:45:10;;;;;;;0.00;0.00;;;10.40;99.90;;;;;;5055085;28;20028;-76
2022/03/12 01:47:36;;;;;;;0.10;0.10;;;10.40;99.90;;;;;;5054858;28;20071;-76
2022/03/12 01:50:04;;;;;;;1.80;1.05;;;10.40;99.90;;;;;;5054725;28;20017;-76
2022/03/12 01:52:31;;;;;;;4.13;1.55;;;10.30;99.90;;;;;;5052269;28;20052;-75
2022/03/12 01:54:57;;;;;;;0.00;0.00;;;10.30;99.90;;;;;;5054664;28;20041;-75
2022/03/12 01:57:23;;;;;;;0.10;0.10;;;10.30;99.90;;;;;;5044091;28;20028;-76
2022/03/12 01:59:50;;;;;;;1.33;1.00;;;10.30;99.90;;;;;;5034964;28;20393;-76
2022/03/12 02:02:17;;;;;;;0.05;0.05;;;10.20;99.90;;;;;;5034697;28;20025;-76
2022/03/12 02:04:51;;;;;;;0.52;0.52;;;9.90;99.90;;;;;;5034590;28;20030;-76
2022/03/12 02:07:17;;;;;;;0.10;0.10;;;9.80;99.90;;;;;;5034899;28;20504;-76
2022/03/12 02:09:44;;;;;;;1.42;0.80;;;9.70;99.90;;;;;;5032863;28;20017;-76
2022/03/12 02:12:11;;;;;;;0.80;0.80;;;9.70;99.90;;;;;;5034400;28;20017;-76
2022/03/12 02:14:37;;;;;;;1.27;1.20;;;9.70;99.90;;;;;;5033280;28;20025;-76
2022/03/12 02:17:08;;;;;;;13.25;1.77;;;9.70;99.90;;;;;;5032184;28;20040;-75
2022/03/12 02:19:34;;;;;;;4.13;1.58;;;9.70;99.90;;;;;;5034531;28;20393;-75
2022/03/12 02:22:05;;;;;;;0.22;0.22;;;9.80;99.90;;;;;;5033375;28;20029;-75
2022/03/12 02:24:34;;;;;;;0.55;0.55;;;9.80;99.90;;;;;;5034006;28;20028;-75
2022/03/12 02:27:02;;;;;;;1.45;0.93;;;9.90;99.90;;;;;;5033563;28;20033;-75
2022/03/12 02:29:28;;;;;;;1.33;1.17;;;10.00;99.90;;;;;;5034367;28;20366;-75
2022/03/12 02:31:57;;;;;;;1.48;0.82;;;10.00;99.90;;;;;;5034065;28;20083;-75
2022/03/12 02:34:45;;;;;;;1.17;0.90;;;10.10;99.90;;;;;;5032839;28;20513;-76
2022/03/12 02:37:27;;;;;;;5.75;2.22;;;10.10;99.90;;;;;;5040130;28;20025;-76
2022/03/12 02:39:52;;;;;;;0.88;0.88;;;10.10;99.90;;;;;;5053872;28;20104;-76
2022/03/12 02:42:19;;;;;;;0.00;0.00;;;10.10;99.90;;;;;;5053883;28;20124;-75
2022/03/12 02:44:47;;;;;;;0.82;0.82;;;10.10;99.90;;;;;;5054008;28;20487;-75
2022/03/12 02:47:19;;;;;;;3.42;1.48;;;10.20;99.90;;;;;;5052497;28;20029;-76
2022/03/12 02:49:59;;;;;;;0.10;0.10;;;10.20;99.90;;;;;;5053321;28;20029;-76
2022/03/12 02:52:27;;;;;;;0.63;0.63;;;10.20;99.90;;;;;;5053537;28;20391;-76
2022/03/12 02:54:54;;;;;;;0.30;0.30;;;10.20;99.90;;;;;;5053254;28;20041;-75
2022/03/12 02:57:27;;;;;;;3.58;1.40;;;10.20;99.90;;;;;;5042712;28;20026;-76
2022/03/12 02:59:54;;;;;;;0.25;0.25;;;10.20;99.90;;;;;;5033770;28;20014;-75
2022/03/12 03:02:29;;;;;;;0.30;0.30;;;10.20;99.90;;;;;;5033142;28;20029;-75
2022/03/12 03:04:55;;;;;;;1.05;0.63;;;10.20;99.90;;;;;;5032804;28;20025;-75
2022/03/12 03:07:20;;;;;;;0.60;0.50;;;10.20;99.90;;;;;;5033320;28;20032;-75
2022/03/12 03:09:46;;;;;;;0.17;0.17;;;10.20;99.90;;;;;;5032975;28;20025;-75
2022/03/12 03:12:12;;;;;;;0.10;0.10;;;10.10;99.90;;;;;;5033387;28;20025;-75
2022/03/12 03:14:42;;;;;;;8.57;1.85;;;10.10;99.90;;;;;;5033517;28;20026;-75
2022/03/12 03:17:11;;;;;;;0.40;0.40;;;10.10;99.90;;;;;;5033034;28;20029;-75
2022/03/12 03:19:38;;;;;;;0.13;0.13;;;10.10;99.90;;;;;;5033095;28;20017;-75
2022/03/12 03:22:04;;;;;;;0.43;0.43;;;10.10;99.90;;;;;;5033727;28;20030;-74
2022/03/12 03:24:30;;;;;;;0.00;0.00;;;10.20;99.90;;;;;;5033198;28;20025;-75
2022/03/12 03:26:58;;;;;;;0.60;0.60;;;10.10;99.90;;;;;;5032925;28;20028;-75
2022/03/12 03:29:27;;;;;;;0.00;0.00;;;10.20;99.90;;;;;;5033032;28;20057;-75
2022/03/12 03:31:54;;;;;;;0.00;0.00;;;10.20;99.90;;;;;;5033173;28;20018;-75
2022/03/12 03:34:21;;;;;;;0.55;0.55;;;10.20;99.90;;;;;;5033449;28;20033;-75
2022/03/12 03:36:47;;;;;;;0.10;0.10;;;10.10;99.90;;;;;;5036677;28;20028;-75
2022/03/12 03:39:13;;;;;;;0.00;0.00;;;10.10;99.90;;;;;;5053067;28;20048;-75
2022/03/12 03:41:39;;;;;;;4.47;1.75;;;10.10;99.90;;;;;;5051560;28;20040;-76
2022/03/12 03:44:05;;;;;;;0.80;0.73;;;10.10;99.90;;;;;;5052833;28;20068;-75
2022/03/12 03:46:32;;;;;;;0.20;0.20;;;10.10;99.90;;;;;;5052883;28;20101;-75
2022/03/12 03:48:58;;;;;;;0.20;0.20;;;10.10;99.90;;;;;;5052786;28;20025;-75
2022/03/12 03:51:23;;;;;;;1.75;1.45;;;10.00;99.90;;;;;;5052769;28;20438;-75
2022/03/12 03:53:50;;;;;;;3.97;0.22;;;10.00;99.90;;;;;;5050946;28;20504;-75
2022/03/12 03:56:17;;;;;;;0.17;0.17;;;10.00;99.90;;;;;;5050742;28;20069;-75
2022/03/12 03:58:43;;;;;;;0.88;0.80;;;10.00;99.90;;;;;;5032832;28;20026;-75
2022/03/12 04:01:12;;;;;;;0.00;0.00;;;10.00;99.90;;;;;;5032719;28;20040;-76
2022/03/12 04:03:44;;;;;;;0.57;0.50;;;10.00;99.90;;;;;;5032690;28;20033;-75
2022/03/12 04:06:10;;;;;;;0.00;0.00;;;10.00;99.90;;;;;;5032666;28;20024;-75
2022/03/12 04:08:36;;;;;;;0.65;0.65;;;10.00;99.90;;;;;;5032613;28;20036;-75
2022/03/12 04:11:04;;;;;;;1.08;0.90;;;10.00;99.90;;;;;;5036711;28;20025;-76
2022/03/12 04:13:31;;;;;;;0.00;0.00;;;9.90;99.90;;;;;;5032423;28;20049;-74
2022/03/12 04:16:01;;;;;;;0.15;0.15;;;9.90;99.90;;;;;;5034588;28;20030;-75
2022/03/12 04:18:27;;;;;;;1.17;0.98;;;9.90;99.90;;;;;;5034598;28;20029;-75
2022/03/12 04:20:54;;;;;;;11.45;2.20;;;9.90;99.90;;;;;;5035465;28;20554;-75
2022/03/12 04:23:24;;;;;;;0.00;0.00;;;9.80;99.90;;;;;;5035388;28;20040;-75
2022/03/12 04:25:52;;;;;;;4.88;0.82;;;9.80;99.90;;;;;;5036268;28;20018;-76
2022/03/12 04:28:23;;;;;;;0.22;0.22;;;9.70;99.90;;;;;;5035919;28;20025;-75
2022/03/12 04:30:49;;;;;;;0.00;0.00;;;9.70;99.90;;;;;;5035585;28;20025;-75
2022/03/12 04:33:19;;;;;;;0.13;0.13;;;9.80;99.90;;;;;;5035106;28;20091;-75
2022/03/12 04:35:46;;;;;;;0.77;0.77;;;9.80;99.90;;;;;;5035266;28;20033;-76
2022/03/12 04:38:13;;;;;;;0.38;0.38;;;9.70;99.90;;;;;;5052151;28;20466;-75
2022/03/12 04:40:40;;;;;;;0.10;0.10;;;9.70;99.90;;;;;;5056174;28;20029;-75
2022/03/12 04:43:07;;;;;;;0.10;0.10;;;9.70;99.90;;;;;;5056012;28;20128;-75
2022/03/12 04:45:34;;;;;;;3.83;1.02;;;9.70;99.90;;;;;;5054762;28;20502;-75
2022/03/12 04:47:59;;;;;;;0.52;0.52;;;9.70;99.90;;;;;;5055756;28;20110;-75
2022/03/12 04:50:25;;;;;;;1.02;0.98;;;9.60;99.90;;;;;;5055658;28;20016;-76
2022/03/12 04:52:54;;;;;;;0.10;0.10;;;9.60;99.90;;;;;;5056156;28;20025;-75
2022/03/12 04:55:22;;;;;;;1.25;0.52;;;9.50;99.90;;;;;;5055875;28;20024;-75
2022/03/12 04:57:48;;;;;;;5.32;0.63;;;9.50;99.90;;;;;;5041182;28;20037;-76
2022/03/12 05:00:17;;;;;;;4.20;1.05;;;9.50;99.90;;;;;;5035884;28;20488;-75
2022/03/12 05:02:45;;;;;;;0.00;0.00;;;9.50;99.90;;;;;;5035747;28;20029;-75
2022/03/12 05:05:13;;;;;;;0.20;0.20;;;9.50;99.90;;;;;;5040396;28;20024;-75
2022/03/12 05:07:44;;;;;;;0.75;0.75;;;9.40;99.90;;;;;;5038201;28;20101;-75
2022/03/12 05:10:16;;;;;;;0.52;0.52;;;9.40;99.90;;;;;;5035455;28;20029;-75
2022/03/12 05:12:48;;;;;;;1.45;1.35;;;9.40;99.90;;;;;;5035717;28;20024;-76
2022/03/12 05:15:15;;;;;;;2.42;0.98;;;9.30;99.90;;;;;;5035770;28;20076;-75
2022/03/12 05:17:49;;;;;;;0.28;0.28;;;9.30;99.90;;;;;;5035232;28;20029;-75
2022/03/12 05:20:23;;;;;;;0.03;0.03;;;9.30;99.90;;;;;;5035108;28;20041;-75
2022/03/12 05:22:50;;;;;;;0.85;0.65;;;9.30;99.90;;;;;;5034898;28;20437;-75
2022/03/12 05:25:18;;;;;;;17.98;1.70;;;9.20;99.90;;;;;;5035286;28;20021;-75
2022/03/12 05:27:53;;;;;;;1.33;0.95;;;9.10;99.90;;;;;;5034637;28;20369;-75
2022/03/12 05:30:21;;;;;;;0.28;0.28;;;9.00;99.90;;;;;;5035415;28;20419;-75
2022/03/12 05:32:48;;;;;;;1.55;0.55;;;8.90;99.90;;;;;;5035309;28;20507;-76
2022/03/12 05:35:17;;;;;;;0.10;0.10;;;8.80;99.90;;;;;;5034062;28;20044;-75
2022/03/12 05:37:45;;;;;;;0.10;0.10;;;8.80;99.90;;;;;;5047125;28;20108;-76
2022/03/12 05:40:11;;;;;;;0.10;0.10;;;8.70;99.90;;;;;;5055052;28;20045;-75
2022/03/12 05:42:38;;;;;;;0.98;0.93;;;8.70;99.90;;;;;;5053369;28;20077;-75
2022/03/12 05:45:09;;;;;;;0.22;0.22;;;8.70;99.90;;;;;;5055197;28;20094;-75
2022/03/12 05:47:38;;;;;;;0.00;0.00;;;8.70;99.90;;;;;;5053506;28;20108;-76
2022/03/12 05:50:09;;;;;;;5.00;1.50;;;8.60;99.90;;;;;;5054738;28;20155;-76
2022/03/12 05:52:36;;;;;;;0.55;0.55;;;8.60;99.90;;;;;;5061599;28;20049;-76
2022/03/12 05:55:04;;;;;;;0.50;0.50;;;8.60;99.90;;;;;;5053940;28;20028;-75
2022/03/12 05:57:31;;;;;;;1.55;1.38;;;8.60;99.90;;;;;;5041951;28;20041;-75
2022/03/12 05:59:57;;;;;;;2.13;0.85;;;8.50;99.90;;;;;;5034771;28;20107;-75
2022/03/12 06:02:23;;;;;;;0.20;0.20;;;8.50;99.90;;;;;;5035087;28;20018;-75
2022/03/12 06:04:48;;;;;;;0.60;0.55;;;8.50;99.90;;;;;;5034850;28;20435;-76
2022/03/12 06:07:14;;;;;;;0.20;0.20;;;8.50;99.90;;;;;;5034853;28;20034;-75
2022/03/12 06:09:40;;;;;;;0.10;0.10;;;8.60;99.90;;;;;;5034379;28;20101;-75
2022/03/12 06:12:08;;;;;;;17.42;3.05;;;8.60;99.90;;;;;;5034247;28;20025;-75
2022/03/12 06:14:36;;;;;;;0.10;0.10;;;8.60;99.90;;;;;;5034600;28;20085;-75
2022/03/12 06:17:02;;;;;;;3.03;1.35;;;8.60;99.90;;;;;;5034324;28;20026;-75
2022/03/12 06:19:30;;;;;;;2.85;1.38;;;8.60;99.90;;;;;;5034154;28;20026;-75
2022/03/12 06:21:57;;;;;;;13.55;1.63;;;8.60;99.90;;;;;;5033993;28;20044;-75
2022/03/12 06:24:22;;;;;;;0.50;0.50;;;8.60;99.90;;;;;;5034028;28;20032;-75
2022/03/12 06:26:48;;;;;;;0.52;0.52;;;8.50;99.90;;;;;;5034448;28;20411;-75
2022/03/12 06:29:14;;;;;;;0.05;0.05;;;8.50;99.90;;;;;;5034417;28;20033;-75
2022/03/12 06:31:42;;;;;;;0.43;0.43;;;8.60;99.90;;;;;;5033863;28;20029;-76
2022/03/12 06:34:10;;;;;;;0.28;0.28;;;8.50;99.90;;;;;;5034195;28;20041;-76
2022/03/12 06:36:37;;;;;;;1.85;0.73;;;8.50;99.90;;;;;;5046779;28;20532;-75
2022/03/12 06:39:07;;;;;;;0.47;0.47;;;8.60;99.90;;;;;;5053943;28;20025;-75
2022/03/12 06:41:38;;;;;;;1.02;1.02;;;8.50;99.90;;;;;;5052453;28;20132;-76
2022/03/12 06:44:03;;;;;;;1.35;1.25;;;8.50;99.90;;;;;;5052484;28;20033;-75
2022/03/12 06:46:30;;;;;;;0.52;0.50;;;8.50;99.90;;;;;;5054936;28;20105;-75
2022/03/12 06:48:56;;;;;;;6.90;1.65;;;8.50;99.90;;;;;;5053937;28;20045;-75
2022/03/12 06:51:22;;;;;;;2.08;1.27;;;8.50;99.90;;;;;;5053758;28;20549;-75
2022/03/12 06:53:48;;;;;;;0.80;0.80;;;8.50;99.90;;;;;;5053223;28;20377;-75
2022/03/12 06:56:14;;;;;;;1.83;0.70;;;8.50;99.90;;;;;;5051880;28;20060;-75
2022/03/12 06:58:39;;;;;;;0.10;0.10;;;8.60;99.90;;;;;;5065742;28;20029;-75
2022/03/12 07:01:05;;;;;;;0.65;0.52;;;8.60;99.90;;;;;;5033728;28;20036;-75
2022/03/12 07:03:31;;;;;;;0.82;0.82;;;8.70;99.90;;;;;;5033486;28;20032;-75
2022/03/12 07:05:57;;;;;;;0.10;0.10;;;8.70;99.90;;;;;;5033627;28;20380;-75
2022/03/12 07:08:23;;;;;;;2.28;1.67;;;8.80;99.90;;;;;;5032675;28;20468;-76
2022/03/12 07:10:49;;;;;;;18.35;1.83;;;8.80;99.90;;;;;;5033441;28;20480;-75
2022/03/12 07:13:16;;;;;;;0.32;0.28;;;8.80;99.90;;;;;;5032588;28;20033;-75
2022/03/12 07:15:42;;;;;;;0.28;0.28;;;8.80;99.90;;;;;;5033823;28;20022;-75
2022/03/12 07:18:08;;;;;;;0.38;0.38;;;8.80;99.90;;;;;;5033037;28;20090;-76
2022/03/12 07:20:34;;;;;;;0.57;0.20;;;8.80;99.90;;;;;;5032855;28;20464;-76
2022/03/12 07:23:00;;;;;;;0.00;0.00;;;8.90;99.90;;;;;;5033414;28;20028;-76
2022/03/12 07:25:27;;;;;;;0.85;0.32;;;8.90;99.90;;;;;;5032899;28;20017;-76
2022/03/12 07:27:54;;;;;;;0.00;0.00;;;8.90;99.90;;;;;;5064903;28;20026;-75
2022/03/12 07:30:21;;;;;;;0.40;0.40;;;8.90;99.90;;;;;;5033269;28;20072;-76
2022/03/12 07:32:48;;;;;;;0.00;0.00;;;9.00;99.90;;;;;;5033260;28;20515;-76
2022/03/12 07:35:15;;;;;;;0.05;0.05;;;9.10;99.90;;;;;;5031938;28;20393;-76
2022/03/12 07:37:43;;;;;;;0.40;0.40;;;9.10;99.90;;;;;;5044713;28;20025;-76
2022/03/12 07:40:10;;;;;;;0.98;0.90;;;9.10;99.90;;;;;;5052622;28;20115;-76
2022/03/12 07:42:37;;;;;;;0.00;0.00;;;9.20;99.90;;;;;;5052406;28;20041;-75
2022/03/12 07:45:03;;;;;;;0.08;0.08;;;9.20;99.90;;;;;;5053016;28;20021;-76
2022/03/12 07:47:29;;;;;;;0.50;0.50;;;9.20;99.90;;;;;;5058987;28;20017;-76
2022/03/12 07:49:54;;;;;;;1.75;1.10;;;9.20;99.90;;;;;;5050772;28;20044;-76
2022/03/12 07:52:20;;;;;;;0.88;0.80;;;9.20;99.90;;;;;;5052826;28;20029;-76
2022/03/12 07:54:46;;;;;;;0.47;0.47;;;9.20;99.90;;;;;;5052581;28;20025;-76
2022/03/12 07:57:13;;;;;;;0.57;0.57;;;9.30;99.90;;;;;;5052831;28;20029;-76
2022/03/12 07:59:39;;;;;;;0.73;0.73;;;9.30;99.90;;;;;;5052415;28;20021;-76
2022/03/12 08:02:06;;;;;;;0.20;0.20;;;9.40;99.90;;;;;;5052691;28;20035;-76
2022/03/12 08:04:33;;;;;;;0.20;0.20;;;9.40;99.90;;;;;;5052722;28;20072;-76
2022/03/12 08:07:02;;;;;;;1.08;0.85;;;9.40;99.90;;;;;;5052702;28;20017;-76
2022/03/12 08:09:31;;;;;;;15.90;0.90;;;9.50;99.90;;;;;;5052402;28;20052;-75
2022/03/12 08:11:58;;;;;;;5.13;2.03;;;9.60;99.90;;;;;;5052342;28;20013;-76
2022/03/12 08:14:24;;;;;;;1.30;1.05;;;9.70;99.90;;;;;;5052352;28;20538;-76
2022/03/12 08:16:52;;;;;;;30.65;2.00;;;9.80;99.90;;;;;;5050463;28;20550;-76
2022/03/12 08:19:19;;;;;;;3.17;2.05;;;10.00;99.90;;;;;;5052651;28;20066;-76
2022/03/12 08:21:46;;;;;;;0.43;0.43;;;10.20;99.90;;;;;;5050575;28;20036;-76
2022/03/12 08:24:15;;;;;;;0.52;0.52;;;10.60;99.90;;;;;;5050793;28;20025;-76
2022/03/12 08:26:42;;;;;;;2.92;1.75;;;11.00;99.90;;;;;;5052419;28;20399;-76
2022/03/12 08:29:10;;;;;;;4.68;1.35;;;12.30;99.90;;;;;;5052797;28;20032;-76
2022/03/12 08:31:37;;;;;;;2.92;1.20;;;14.30;99.90;;;;;;5053633;28;20021;-77
2022/03/12 08:34:03;;;;;;;1.17;0.30;;;16.10;99.90;;;;;;5051153;28;20458;-77
2022/03/12 08:36:28;;;;;;;4.55;0.50;;;17.40;99.90;;;;;;5049051;28;20017;-77
2022/03/12 08:38:54;;;;;;;1.88;0.57;;;17.90;99.90;;;;;;5050849;28;20484;-74
2022/03/12 08:41:21;;;;;;;0.73;0.73;;;18.80;99.90;;;;;;5052338;28;20515;-75
2022/03/12 08:43:48;;;;;;;4.07;1.45;;;17.70;99.90;;;;;;5052401;28;20399;-75
2022/03/12 08:46:14;;;;;;;5.57;0.30;;;16.90;99.90;;;;;;5052298;28;20040;-74
2022/03/12 08:48:40;;;;;;;2.83;0.63;;;15.20;99.90;;;;;;5052266;28;20025;-75
2022/03/12 08:51:06;;;;;;;2.80;0.98;;;13.90;99.90;;;;;;5052172;28;20412;-75
2022/03/12 08:53:33;;;;;;;1.60;0.63;;;13.90;99.90;;;;;;5051477;28;20025;-75
2022/03/12 08:56:00;;;;;;;17.73;2.17;;;15.50;99.90;;;;;;5052005;28;20036;-75
2022/03/12 08:58:27;;;;;;;0.52;0.52;;;17.10;99.90;;;;;;5052420;28;20021;-75
2022/03/12 09:00:53;;;;;;;0.80;0.20;;;18.00;99.90;;;;;;5052079;28;20051;-75
2022/03/12 09:03:23;;;;;;;3.58;0.73;;;19.00;99.90;;;;;;5054626;28;20033;-75
2022/03/12 09:05:49;;;;;;;0.75;0.75;;;18.90;99.90;;;;;;5054353;28;20033;-75
2022/03/12 09:08:16;;;;;;;0.13;0.13;;;19.70;99.90;;;;;;5055611;28;20029;-75
2022/03/12 09:10:42;;;;;;;0.43;0.43;;;19.70;99.90;;;;;;5059190;28;20462;-75
2022/03/12 09:13:12;;;;;;;0.63;0.60;;;19.20;99.90;;;;;;5039953;28;20030;-75
2022/03/12 09:15:38;;;;;;;9.95;0.63;;;18.30;99.90;;;;;;5035636;28;20100;-75
2022/03/12 09:18:03;;;;;;;1.00;0.32;;;17.80;99.90;;;;;;5035205;28;20108;-76
2022/03/12 09:20:30;;;;;;;1.38;1.10;;;17.40;99.90;;;;;;5035194;28;20030;-75
2022/03/12 09:22:55;;;;;;;0.38;0.38;;;16.40;99.90;;;;;;5033600;28;20120;-74
2022/03/12 09:25:21;;;;;;;15.85;1.55;;;15.80;99.90;;;;;;5035271;28;20158;-75
2022/03/12 09:27:47;;;;;;;1.13;0.68;;;15.30;99.90;;;;;;5034688;28;20025;-74
2022/03/12 09:30:14;;;;;;;0.22;0.22;;;15.30;99.90;;;;;;5035526;28;20021;-73
2022/03/12 09:32:40;;;;;;;0.73;0.57;;;15.50;99.90;;;;;;5035408;28;20113;-73
2022/03/12 09:35:07;;;;;;;1.08;0.40;;;15.40;99.90;;;;;;5035549;28;20552;-75
2022/03/12 09:37:34;;;;;;;12.52;2.30;;;15.60;99.90;;;;;;5045458;28;20074;-77
2022/03/12 09:40:00;;;;;;;3.58;0.50;;;16.20;99.90;;;;;;5054783;28;20073;-77
2022/03/12 09:42:30;;;;;;;4.22;1.42;;;17.00;99.90;;;;;;5053789;28;20140;-77
2022/03/12 09:44:59;;;;;;;4.28;1.23;;;18.20;99.90;;;;;;5053808;28;20029;-77
2022/03/12 09:47:25;;;;;;;0.70;0.52;;;18.80;99.90;;;;;;5053749;28;20028;-77
2022/03/12 09:49:51;;;;;;;0.47;0.30;;;19.10;99.90;;;;;;5054738;28;20031;-76
2022/03/12 09:52:17;;;;;;;0.93;0.22;;;19.00;99.90;;;;;;5054879;28;20017;-77
2022/03/12 09:54:43;;;;;;;0.10;0.10;;;18.10;99.90;;;;;;5054788;28;20028;-75
2022/03/12 09:57:09;;;;;;;0.43;0.28;;;16.80;99.90;;;;;;5055057;28;20025;-76
2022/03/12 09:59:35;;;;;;;4.72;0.30;;;15.80;99.90;;;;;;5055792;28;20496;-76
2022/03/12 10:02:01;;;;;;;4.03;0.98;;;14.90;99.90;;;;;;5054398;28;20411;-76
2022/03/12 10:04:28;;;;;;;0.45;0.17;;;14.60;99.90;;;;;;5054579;28;20021;-76
2022/03/12 10:06:54;;;;;;;2.40;0.90;;;14.20;99.90;;;;;;5054632;28;20147;-76
2022/03/12 10:09:20;;;;;;;0.00;0.00;;;13.90;99.90;;;;;;5054626;28;20024;-76
2022/03/12 10:11:49;;;;;;;9.80;0.10;;;14.00;99.90;;;;;;5052676;28;20112;-75
2022/03/12 10:14:15;;;;;;;8.60;0.43;;;14.10;99.90;;;;;;5054173;28;20029;-76
2022/03/12 10:16:41;;;;;;;2.47;0.55;;;13.70;99.90;;;;;;5053803;28;20108;-75
2022/03/12 10:19:06;;;;;;;0.20;0.20;;;13.40;99.90;;;;;;5054317;28;20506;-75
2022/03/12 10:21:32;;;;;;;0.10;0.10;;;13.50;99.90;;;;;;5053283;28;20048;-77
2022/03/12 10:23:59;;;;;;;0.00;0.00;;;13.90;99.90;;;;;;5053284;28;20081;-76
2022/03/12 10:26:25;;;;;;;8.65;0.95;;;13.60;99.90;;;;;;5054292;28;20025;-76
2022/03/12 10:28:51;;;;;;;3.30;0.98;;;13.50;99.90;;;;;;5054300;28;20032;-75
2022/03/12 10:31:19;;;;;;;1.20;0.65;;;13.70;99.90;;;;;;5054035;28;20032;-76
2022/03/12 10:33:46;;;;;;;1.15;0.93;;;13.80;99.90;;;;;;5054241;28;20029;-76
2022/03/12 10:36:14;;;;;;;0.00;0.00;;;13.80;99.90;;;;;;5052522;28;20043;-76
2022/03/12 10:38:42;;;;;;;2.08;1.33;;;13.90;99.90;;;;;;5053534;28;20108;-76
2022/03/12 10:41:08;;;;;;;0.00;0.00;;;13.80;99.90;;;;;;5052628;28;20484;-76
2022/03/12 10:43:45;;;;;;;0.00;0.00;;;13.60;99.90;;;;;;5054055;28;20033;-75
2022/03/12 10:46:19;;;;;;;0.85;0.85;;;13.50;99.90;;;;;;5054050;28;20104;-76
2022/03/12 10:48:46;;;;;;;0.00;0.00;;;13.50;99.90;;;;;;5053726;28;20025;-76
2022/03/12 10:51:12;;;;;;;1.27;0.30;;;13.70;99.90;;;;;;5053724;28;20021;-76
2022/03/12 10:53:38;;;;;;;0.20;0.20;;;13.90;99.90;;;;;;5053558;28;20032;-76
2022/03/12 10:56:07;;;;;;;0.22;0.22;;;13.60;99.90;;;;;;5053443;28;20099;-76
2022/03/12 10:58:33;;;;;;;10.52;0.30;;;13.40;99.90;;;;;;5052498;28;20029;-76
2022/03/12 11:01:01;;;;;;;0.00;0.00;;;13.60;99.90;;;;;;5053877;28;20028;-76
2022/03/12 11:03:30;;;;;;;0.00;0.00;;;13.70;99.90;;;;;;5053400;28;20029;-76
2022/03/12 11:05:56;;;;;;;2.67;0.73;;;14.00;99.90;;;;;;5052132;28;20025;-74
2022/03/12 11:08:24;;;;;;;0.00;0.00;;;13.70;99.90;;;;;;5052182;28;20032;-75
2022/03/12 11:11:11;;;;;;;1.83;0.38;;;13.70;99.90;;;;;;5053476;28;20021;-75
2022/03/12 11:13:47;;;;;;;3.00;0.32;;;14.00;99.90;;;;;;5052593;28;20055;-74
2022/03/12 11:16:21;;;;;;;0.28;0.28;;;14.00;99.90;;;;;;5053271;28;20103;-76
2022/03/12 11:18:53;;;;;;;0.00;0.00;;;13.50;99.90;;;;;;5053197;28;20476;-76
2022/03/12 11:21:43;;;;;;;0.00;0.00;;;13.80;99.90;;;;;;5053372;28;20099;-77
2022/03/12 11:24:17;;;;;;;7.28;0.65;;;13.40;99.90;;;;;;5052575;28;20083;-76
2022/03/12 11:27:01;;;;;;;1.38;0.88;;;13.60;99.90;;;;;;5053512;28;20119;-75
2022/03/12 11:29:28;;;;;;;;;;;13.50;99.90;;;;;;5053216;28;20017;-77
2022/03/12 11:32:05;;;;;;;0.08;0.08;;;13.80;99.90;;;;;;5053049;28;19908;-76
2022/03/12 11:34:32;;;;;;;0.00;0.00;;;13.90;99.90;;;;;;5053603;28;20043;-75
2022/03/12 11:37:07;;;;;;;0.28;0.28;;;13.60;99.90;;;;;;5043603;28;20025;-74
2022/03/12 11:39:41;;;;;;;0.45;0.45;;;13.70;99.90;;;;;;5053156;28;20079;-74
2022/03/12 11:42:14;;;;;;;0.15;0.05;;;13.70;99.90;;;;;;5051583;28;20128;-75
2022/03/12 11:44:49;;;;;;;0.00;0.00;;;13.40;99.90;;;;;;5053102;28;20072;-73
2022/03/12 11:47:20;;;;;;;0.10;0.10;;;13.50;99.90;;;;;;5052129;28;20029;-73
2022/03/12 11:49:49;;;;;;;0.10;0.10;;;13.50;99.90;;;;;;5052562;28;20009;-75
2022/03/12 11:52:16;;;;;;;0.43;0.38;;;13.40;99.90;;;;;;5052768;28;20048;-75
2022/03/12 11:54:44;;;;;;;0.30;0.30;;;13.30;99.90;;;;;;5051608;28;20403;-75
2022/03/12 11:57:12;;;;;;;1.27;0.98;;;13.40;99.90;;;;;;5053772;28;20522;-75
2022/03/12 11:59:41;;;;;;;0.00;0.00;;;13.80;99.90;;;;;;5052762;28;20109;-75
2022/03/12 12:02:32;;;;;;;1.95;1.45;;;13.60;99.90;;;;;;5052619;28;20094;-74
2022/03/12 12:05:11;;;;;;;0.20;0.20;;;13.40;99.90;;;;;;5051251;28;20025;-77
2022/03/12 12:07:38;;;;;;;5.28;1.35;;;13.60;99.90;;;;;;5052844;28;20023;-75
2022/03/12 12:10:08;;;;;;;0.00;0.00;;;13.70;99.90;;;;;;5052485;28;20096;-74
2022/03/12 12:12:34;;;;;;;0.00;0.00;;;14.00;99.90;;;;;;5052756;28;20071;-75
2022/03/12 12:15:04;;;;;;;0.00;0.00;;;14.30;99.90;;;;;;5052728;28;20021;-75
2022/03/12 12:17:31;;;;;;;2.00;0.52;;;14.30;99.90;;;;;;5052327;28;20496;-76
2022/03/12 12:19:57;;;;;;;0.17;0.05;;;14.70;99.90;;;;;;5051305;28;20441;-76
2022/03/12 12:22:23;;;;;;;0.00;0.00;;;14.80;99.90;;;;;;5050837;28;20033;-76
2022/03/12 12:24:53;;;;;;;0.43;0.43;;;14.40;99.90;;;;;;5051554;28;20036;-74
2022/03/12 12:27:23;;;;;;;15.45;2.83;;;13.90;99.90;;;;;;5052740;28;20082;-76
2022/03/12 12:29:55;;;;;;;1.38;1.13;;;14.10;99.90;;;;;;5052393;28;20033;-75
2022/03/12 12:32:22;;;;;;;1.65;1.55;;;14.60;99.90;;;;;;5052558;28;20017;-75
2022/03/12 12:35:02;;;;;;;1.73;0.38;;;14.40;99.90;;;;;;5052908;28;20039;-76
2022/03/12 12:38:04;;;;;;;0.03;0.03;;;14.40;99.90;;;;;;5046684;28;20399;-74
2022/03/12 12:40:53;;;;;;;0.88;0.15;;;13.70;99.90;;;;;;5056353;28;20071;-75
2022/03/12 12:43:31;;;;;;;1.75;0.93;;;14.10;99.90;;;;;;5055797;28;20044;-76
2022/03/12 12:45:57;;;;;;;0.08;0.08;;;13.60;99.90;;;;;;5056315;28;20369;-74
2022/03/12 12:48:54;;;;;;;0.00;0.00;;;13.20;99.90;;;;;;5056001;28;20024;-76
2022/03/12 12:51:21;;;;;;;0.00;0.00;;;13.40;99.90;;;;;;5055966;28;20365;-76
2022/03/12 12:53:51;;;;;;;2.20;1.02;;;14.00;99.90;;;;;;5054352;28;20396;-75
2022/03/12 12:56:26;;;;;;;0.95;0.28;;;13.80;99.90;;;;;;5054682;28;20025;-75